Time;durP1;ratioP1;P1;durP2;ratioP2;P2;SDS_P1;SDS_P2;PMS_P1;PMS_P2;Temp;Humidity;BMP_temperature;BMP_pressure;BME280_temperature;BME280_humidity;BME280_pressure;Samples;Min_cycle;Max_cycle;Signal;HPM_P1;HPM_P2
2023/01/28 02:04:51;;;;;;;4.70;1.27;;;;;;;-0.97;100.00;100135.38;3253313;26;20048;-93
2023/01/28 02:07:17;;;;;;;4.25;3.88;;;;;;;-0.93;100.00;100143.63;5004900;28;20029;-91
2023/01/28 02:09:43;;;;;;;3.60;2.75;;;;;;;-0.99;100.00;100133.00;5023102;28;20029;-92
2023/01/28 02:12:12;;;;;;;1.08;1.08;;;;;;;-0.97;100.00;100138.84;5006359;28;20539;-92
2023/01/28 02:15:02;;;;;;;3.70;3.40;;;;;;;-1.14;100.00;100109.34;5024240;28;20581;-92
2023/01/28 02:17:28;;;;;;;3.30;2.85;;;;;;;-0.97;100.00;100138.84;5011991;28;20048;-92
2023/01/28 02:19:58;;;;;;;2.97;2.08;;;;;;;-0.98;100.00;100137.31;5003294;28;20029;-92
2023/01/28 02:22:39;;;;;;;2.05;1.90;;;;;;;-1.01;100.00;100135.28;5043772;28;20414;-94
2023/01/28 02:25:14;;;;;;;1.55;0.93;;;;;;;-1.03;100.00;100134.06;5026382;28;20140;-93
2023/01/28 02:28:04;;;;;;;3.03;2.53;;;;;;;-1.03;100.00;100129.41;5024351;28;20037;-95
2023/01/28 02:30:37;;;;;;;1.75;1.65;;;;;;;-1.03;100.00;100125.91;5039872;28;20092;-94
2023/01/28 02:33:08;;;;;;;1.35;1.25;;;;;;;-1.10;100.00;100118.38;5026906;28;20056;-95
2023/01/28 02:35:41;;;;;;;1.15;1.15;;;;;;;-1.13;100.00;100119.06;5012749;28;20119;-94
2023/01/28 02:38:10;;;;;;;0.65;0.65;;;;;;;-1.16;100.00;100089.06;5027200;28;20056;-93
2023/01/28 02:43:39;;;;;;;1.83;1.35;;;;;;;-1.09;100.00;100128.09;5026469;28;20041;-93
2023/01/28 02:49:38;;;;;;;5.43;1.98;;;;;;;-1.13;100.00;100119.06;5021383;28;20090;-92
2023/01/28 02:52:16;;;;;;;1.05;0.80;;;;;;;-1.12;100.00;100126.09;5011827;28;20056;-92
2023/01/28 02:55:21;;;;;;;0.32;0.32;;;;;;;-1.23;100.00;100118.84;5025742;28;20083;-91
2023/01/28 02:57:59;;;;;;;2.15;1.95;;;;;;;-1.18;100.00;100118.56;5027830;28;20576;-93
2023/01/28 03:00:47;;;;;;;2.38;1.80;;;;;;;-1.23;100.00;100116.91;5029370;28;20051;-94
2023/01/28 03:03:19;;;;;;;3.65;2.10;;;;;;;-1.30;100.00;100108.59;5023830;28;20499;-94
2023/01/28 03:06:03;;;;;;;2.78;2.58;;;;;;;-1.17;100.00;100134.53;4998095;28;20136;-94
2023/01/28 03:36:47;;;;;;;2.25;2.05;;;;;;;-1.17;100.00;100145.41;5028458;28;20151;-93
2023/01/28 03:39:30;;;;;;;1.58;1.48;;;;;;;-1.27;100.00;100131.59;5014358;28;20120;-91
2023/01/28 03:42:06;;;;;;;1.02;0.95;;;;;;;-1.25;100.00;100140.97;5014013;28;20036;-90
2023/01/28 03:44:51;;;;;;;0.68;0.68;;;;;;;-1.28;100.00;100130.81;5000144;28;20034;-91
2023/01/28 03:47:23;;;;;;;1.55;1.38;;;;;;;-1.16;100.00;100141.56;4998908;28;20497;-91
2023/01/28 03:49:51;;;;;;;1.45;0.82;;;;;;;-1.23;100.00;100129.75;4990257;28;20136;-91
2023/01/28 03:52:21;;;;;;;1.75;1.67;;;;;;;-1.27;100.00;100132.38;4995304;28;20072;-90
2023/01/28 03:54:47;;;;;;;3.45;3.15;;;;;;;-1.14;100.00;100152.09;4992084;28;20038;-90
2023/01/28 03:57:18;;;;;;;5.68;1.88;;;;;;;-1.26;100.00;100135.91;4994762;28;20052;-92
2023/01/28 03:59:44;;;;;;;0.85;0.85;;;;;;;-1.16;100.00;100154.38;5014911;28;20721;-93
2023/01/28 04:02:11;;;;;;;1.88;1.45;;;;;;;-1.12;100.00;100163.41;5007874;28;20063;-93
2023/01/28 04:04:37;;;;;;;1.50;1.42;;;;;;;-1.30;100.00;100130.38;5000117;28;20038;-94
2023/01/28 04:07:03;;;;;;;3.17;2.95;;;;;;;-1.19;100.00;100142.28;5015422;28;20030;-92
2023/01/28 04:09:52;;;;;;;1.85;1.75;;;;;;;-1.15;100.00;100159.47;4977333;28;20049;-93
2023/01/28 04:12:39;;;;;;;2.63;2.42;;;;;;;-1.12;100.00;100169.66;4990043;28;20036;-90
2023/01/28 04:15:14;;;;;;;1.20;1.17;;;;;;;-1.19;100.00;100155.88;5026603;28;20050;-91
2023/01/28 04:17:44;;;;;;;0.73;0.73;;;;;;;-1.11;100.00;100163.06;4984251;28;20054;-91
2023/01/28 04:20:13;;;;;;;0.73;0.68;;;;;;;-1.15;100.00;100164.94;4999946;28;21106;-90
2023/01/28 04:22:38;;;;;;;0.10;0.10;;;;;;;-1.20;100.00;100150.78;4992384;28;20486;-92
2023/01/28 04:25:08;;;;;;;0.70;0.65;;;;;;;-1.14;100.00;100161.06;4997415;28;20502;-90
2023/01/28 04:27:33;;;;;;;1.52;1.42;;;;;;;-1.17;100.00;100161.00;5026560;28;20453;-90
2023/01/28 04:30:09;;;;;;;3.83;2.20;;;;;;;-1.12;100.00;100157.97;5010024;28;20077;-90
2023/01/28 04:32:40;;;;;;;0.68;0.68;;;;;;;-1.09;100.00;100174.38;5011846;28;20433;-91
2023/01/28 04:35:18;;;;;;;3.92;1.35;;;;;;;-1.29;100.00;100142.81;5003005;28;20091;-93
2023/01/28 04:38:04;;;;;;;1.55;1.23;;;;;;;-1.20;100.00;100151.59;5003555;28;20502;-93
2023/01/28 04:40:49;;;;;;;4.03;1.17;;;;;;;-1.23;100.00;100157.75;4997358;28;20033;-92
2023/01/28 04:43:24;;;;;;;1.08;1.05;;;;;;;-1.17;100.00;100167.19;5012989;28;20037;-93
2023/01/28 04:45:53;;;;;;;1.80;1.65;;;;;;;-1.32;100.00;100143.53;5004585;28;20495;-92
2023/01/28 04:48:29;;;;;;;0.28;0.28;;;;;;;-1.27;100.00;100156.88;5014125;28;20021;-94
2023/01/28 04:51:13;;;;;;;0.98;0.70;;;;;;;-1.16;100.00;100185.13;5014396;28;20114;-91
2023/01/28 04:53:47;;;;;;;0.28;0.28;;;;;;;-1.09;100.00;100177.09;5027415;28;20033;-92
2023/01/28 04:56:25;;;;;;;4.63;3.42;;;;;;;-1.16;100.00;100173.44;5012839;28;20650;-92
2023/01/28 04:58:51;;;;;;;1.88;1.10;;;;;;;-1.21;100.00;100160.13;5025903;28;20087;-92
2023/01/28 05:01:16;;;;;;;2.40;2.30;;;;;;;-1.23;100.00;100167.84;5009584;28;20046;-91
2023/01/28 05:03:42;;;;;;;1.70;1.60;;;;;;;-1.16;100.00;100176.94;5010622;28;20033;-91
2023/01/28 05:06:10;;;;;;;1.95;1.27;;;;;;;-1.22;100.00;100170.22;5008437;28;20036;-92
2023/01/28 05:08:40;;;;;;;4.18;3.88;;;;;;;-1.19;100.00;100168.72;4995576;28;20030;-92
2023/01/28 05:11:07;;;;;;;1.42;1.33;;;;;;;-1.21;100.00;100169.06;5022048;28;20041;-91
2023/01/28 05:13:32;;;;;;;2.08;1.85;;;;;;;-1.13;100.00;100191.81;5013149;28;20179;-94
2023/01/28 05:15:58;;;;;;;1.05;1.02;;;;;;;-1.16;100.00;100179.66;4991712;28;20132;-93
2023/01/28 05:18:24;;;;;;;1.13;1.13;;;;;;;-1.13;100.00;100187.13;5009363;28;20041;-95
2023/01/28 05:21:03;;;;;;;3.30;3.08;;;;;;;-1.08;100.00;100196.94;4987858;28;20029;-94
2023/01/28 05:23:34;;;;;;;1.90;1.80;;;;;;;-1.13;100.00;100189.06;5013032;28;20430;-96
2023/01/28 05:26:00;;;;;;;3.97;3.65;;;;;;;-1.23;100.00;100181.44;5006334;28;20034;-93
2023/01/28 05:28:26;;;;;;;1.33;0.90;;;;;;;-1.09;100.00;100207.03;4995794;28;20108;-94
2023/01/28 05:30:52;;;;;;;2.40;2.20;;;;;;;-1.19;100.00;100191.28;4995347;28;20056;-94
2023/01/28 05:33:17;;;;;;;1.35;1.30;;;;;;;-1.15;100.00;100197.59;5013760;28;20021;-95
2023/01/28 05:35:43;;;;;;;1.48;1.08;;;;;;;-1.07;100.00;100221.09;5011172;28;20418;-95
2023/01/28 05:38:09;;;;;;;0.55;0.55;;;;;;;-1.11;100.00;100205.84;4983885;28;20077;-94
2023/01/28 05:40:34;;;;;;;3.40;3.20;;;;;;;-1.15;100.00;100203.03;4998407;28;20556;-93
2023/01/28 05:43:00;;;;;;;3.55;3.30;;;;;;;-1.11;100.00;100209.34;5013142;28;20033;-94
2023/01/28 05:45:52;;;;;;;1.77;1.67;;;;;;;-1.23;100.00;100195.84;5021876;28;20034;-93
2023/01/28 05:48:36;;;;;;;2.78;1.95;;;;;;;-1.27;100.00;100194.97;5015946;28;20037;-93
2023/01/28 05:51:30;;;;;;;2.10;1.40;;;;;;;-1.20;100.00;100213.41;5009258;28;20490;-92
2023/01/28 05:53:57;;;;;;;2.03;1.83;;;;;;;-1.20;100.00;100225.06;5000525;28;20117;-92
2023/01/28 05:56:41;;;;;;;2.03;1.90;;;;;;;-1.26;100.00;100207.44;4993909;28;20034;-92
2023/01/28 05:59:07;;;;;;;3.05;1.98;;;;;;;-1.18;100.00;100222.81;5016122;28;20553;-93
2023/01/28 06:01:34;;;;;;;0.40;0.40;;;;;;;-1.24;100.00;100210.59;4988219;28;20030;-92
2023/01/28 06:03:59;;;;;;;0.63;0.63;;;;;;;-1.11;100.00;100231.13;5025982;28;20041;-91
2023/01/28 06:06:28;;;;;;;1.60;1.50;;;;;;;-1.23;100.00;100225.00;5020511;28;20037;-92
2023/01/28 06:08:53;;;;;;;4.63;1.58;;;;;;;-1.22;100.00;100224.66;5027499;28;20033;-92
2023/01/28 06:11:24;;;;;;;0.52;0.52;;;;;;;-1.32;100.00;100222.44;4993776;28;20494;-92
2023/01/28 06:13:53;;;;;;;1.20;1.10;;;;;;;-1.23;100.00;100225.78;5011804;28;20045;-92
2023/01/28 06:16:29;;;;;;;1.88;1.77;;;;;;;-1.19;100.00;100240.28;5029277;28;20044;-91
2023/01/28 06:19:10;;;;;;;3.42;3.13;;;;;;;-1.22;100.00;100238.25;5014373;28;20102;-92
2023/01/28 06:21:35;;;;;;;6.32;3.35;;;;;;;-1.33;100.00;100231.75;5028614;28;20045;-93
2023/01/28 06:24:01;;;;;;;2.15;2.00;;;;;;;-1.25;100.00;100233.50;4992807;28;20521;-92
2023/01/28 06:26:28;;;;;;;1.02;1.02;;;;;;;-1.27;100.00;100243.97;4996848;28;20347;-91
2023/01/28 06:28:55;;;;;;;2.67;2.50;;;;;;;-1.28;100.00;100236.94;4998421;28;20029;-95
2023/01/28 06:31:20;;;;;;;13.23;3.00;;;;;;;-1.31;100.00;100231.41;5011408;28;20033;-93
2023/01/28 06:33:46;;;;;;;1.55;1.30;;;;;;;-1.35;100.00;100239.50;4995284;28;20029;-93
2023/01/28 06:36:11;;;;;;;5.35;2.92;;;;;;;-1.34;100.00;100240.28;5032152;28;20033;-93
2023/01/28 06:38:37;;;;;;;0.98;0.93;;;;;;;-1.30;100.00;100250.13;4988360;28;20121;-93
2023/01/28 06:41:03;;;;;;;3.75;0.85;;;;;;;-1.30;100.00;100252.84;5013753;28;20025;-93
2023/01/28 06:43:29;;;;;;;3.00;2.72;;;;;;;-1.42;100.00;100231.16;5012492;28;20044;-93
2023/01/28 06:45:56;;;;;;;2.88;2.67;;;;;;;-1.34;100.00;100248.44;4995252;28;20495;-92
2023/01/28 06:48:22;;;;;;;1.05;1.05;;;;;;;-1.27;100.00;100262.22;5028403;28;20036;-91
2023/01/28 06:50:48;;;;;;;0.98;0.95;;;;;;;-1.24;100.00;100270.47;5023689;28;20036;-91
2023/01/28 06:53:14;;;;;;;1.10;1.10;;;;;;;-1.36;100.00;100251.50;5027007;28;20026;-93
2023/01/28 06:55:39;;;;;;;1.40;1.30;;;;;;;-1.29;100.00;100262.56;5024477;28;20507;-92
2023/01/28 06:58:05;;;;;;;1.00;1.00;;;;;;;-1.41;100.00;100243.59;5009356;28;20033;-93
2023/01/28 07:00:30;;;;;;;0.60;0.60;;;;;;;-1.41;100.00;100249.03;5022888;28;20566;-92
2023/01/28 07:02:56;;;;;;;5.38;4.88;;;;;;;-1.30;100.00;100271.88;5008743;28;20525;-92
2023/01/28 07:05:22;;;;;;;2.08;1.95;;;;;;;-1.35;100.00;100263.97;5009873;28;20132;-93
2023/01/28 07:07:48;;;;;;;2.45;2.17;;;;;;;-1.42;100.00;100261.88;4991833;28;20176;-95
2023/01/28 07:10:13;;;;;;;1.35;1.25;;;;;;;-1.36;100.00;100256.94;5009388;28;20026;-95
2023/01/28 07:12:39;;;;;;;2.20;2.00;;;;;;;-1.23;100.00;100293.84;5002792;28;20041;-94
2023/01/28 07:15:05;;;;;;;0.70;0.70;;;;;;;-1.25;100.00;100290.66;4991198;28;20032;-94
2023/01/28 07:17:31;;;;;;;0.63;0.63;;;;;;;-1.31;100.00;100267.59;5027572;28;20050;-93
2023/01/28 07:19:56;;;;;;;3.03;2.83;;;;;;;-1.24;100.00;100286.00;5010381;28;20025;-94
2023/01/28 07:22:22;;;;;;;0.90;0.90;;;;;;;-1.13;100.00;100296.00;5027894;28;20043;-94
2023/01/28 07:24:48;;;;;;;1.50;1.45;;;;;;;-1.17;100.00;100292.41;4993419;28;20026;-94
2023/01/28 07:27:14;;;;;;;3.03;1.70;;;;;;;-1.20;100.00;100289.59;5023476;28;20512;-94
2023/01/28 07:29:39;;;;;;;3.10;1.73;;;;;;;-1.23;100.00;100282.94;4994823;28;20046;-93
2023/01/28 07:32:06;;;;;;;0.60;0.60;;;;;;;-1.13;100.00;100297.97;5008943;28;20029;-94
2023/01/28 07:34:32;;;;;;;1.10;1.10;;;;;;;-1.11;100.00;100292.94;5011418;28;20104;-94
2023/01/28 07:36:58;;;;;;;1.90;1.80;;;;;;;-1.14;100.00;100294.44;5008354;28;20093;-93
2023/01/28 07:39:24;;;;;;;3.65;2.15;;;;;;;-1.20;100.00;100286.88;4991959;28;20069;-93
2023/01/28 07:41:49;;;;;;;2.22;1.80;;;;;;;-1.14;100.00;100286.28;5008074;28;20091;-94
2023/01/28 07:44:31;;;;;;;0.38;0.38;;;;;;;-1.07;100.00;100302.78;4995911;28;20088;-93
2023/01/28 07:46:56;;;;;;;2.30;2.20;;;;;;;-1.16;100.00;100288.56;5007420;28;20037;-92
2023/01/28 07:49:22;;;;;;;3.08;2.70;;;;;;;-1.03;100.00;100309.09;5005652;28;20051;-92
2023/01/28 07:51:49;;;;;;;2.88;2.53;;;;;;;-0.98;100.00;100322.44;5017676;28;20447;-93
2023/01/28 07:54:15;;;;;;;0.47;0.47;;;;;;;-1.09;100.00;100294.16;5019418;28;20034;-92
2023/01/28 07:56:41;;;;;;;2.00;1.90;;;;;;;-1.04;100.00;100293.91;5003762;28;20083;-91
2023/01/28 07:59:06;;;;;;;3.30;2.40;;;;;;;-1.05;100.00;100299.72;5023687;28;20041;-91
2023/01/28 08:01:34;;;;;;;1.65;1.55;;;;;;;-1.02;100.00;100307.97;5008822;28;20777;-92
2023/01/28 08:04:00;;;;;;;3.03;1.60;;;;;;;-1.04;100.00;100307.50;4989309;28;20061;-91
2023/01/28 08:06:27;;;;;;;1.20;1.20;;;;;;;-1.10;100.00;100298.03;5002481;28;20038;-91
2023/01/28 08:08:53;;;;;;;3.17;2.92;;;;;;;-1.04;100.00;100312.97;5038526;28;20037;-90
2023/01/28 08:11:19;;;;;;;1.17;1.08;;;;;;;-1.04;100.00;100312.97;5004036;28;20049;-90
2023/01/28 08:13:45;;;;;;;4.25;3.38;;;;;;;-0.93;100.00;100320.59;4989614;28;20028;-92
2023/01/28 08:16:10;;;;;;;0.35;0.35;;;;;;;-0.89;100.00;100321.47;5023362;28;20045;-92
2023/01/28 08:18:36;;;;;;;1.40;1.30;;;;;;;-0.93;100.00;100321.41;5020803;28;20372;-91
2023/01/28 08:21:03;;;;;;;0.52;0.52;;;;;;;-0.98;100.00;100308.03;5026582;28;20044;-95
2023/01/28 08:23:29;;;;;;;1.10;1.10;;;;;;;-0.86;100.00;100323.50;5009857;28;20053;-96
2023/01/28 08:25:58;;;;;;;3.42;3.13;;;;;;;-0.97;100.00;100310.41;5022819;28;20034;-94
2023/01/28 08:28:23;;;;;;;1.33;1.23;;;;;;;-0.88;100.00;100331.22;5010008;28;20037;-93
2023/01/28 08:30:49;;;;;;;1.95;1.65;;;;;;;-0.93;100.00;100323.31;4988821;28;20463;-95
2023/01/28 08:33:16;;;;;;;3.85;2.92;;;;;;;-0.83;100.00;100328.22;4993997;28;20521;-94
2023/01/28 08:35:42;;;;;;;2.03;1.85;;;;;;;-0.77;100.00;100332.28;4993892;28;20080;-94
2023/01/28 08:38:09;;;;;;;1.90;1.80;;;;;;;-0.95;100.00;100302.69;4995491;28;20076;-94
2023/01/28 08:40:35;;;;;;;4.10;3.17;;;;;;;-0.80;100.00;100325.56;4994673;28;20063;-92
2023/01/28 08:43:01;;;;;;;0.52;0.52;;;;;;;-0.83;100.00;100330.94;5008054;28;20457;-93
2023/01/28 08:45:27;;;;;;;1.92;1.83;;;;;;;-0.67;100.00;100346.13;4998111;28;20095;-95
2023/01/28 08:47:58;;;;;;;0.45;0.45;;;;;;;-0.63;100.00;100338.81;5011122;28;20121;-93
2023/01/28 08:50:26;;;;;;;1.48;1.38;;;;;;;-0.76;100.00;100312.03;5010979;28;20041;-96
2023/01/28 08:52:58;;;;;;;1.42;1.33;;;;;;;-0.55;100.00;100339.78;5010484;28;20026;-95
2023/01/28 08:55:25;;;;;;;5.05;2.53;;;;;;;-0.68;100.00;100320.03;5011112;28;20029;-94
2023/01/28 08:57:51;;;;;;;3.70;3.38;;;;;;;-0.61;100.00;100324.88;5027674;28;20498;-93
2023/01/28 09:00:17;;;;;;;1.38;1.23;;;;;;;-0.44;100.00;100338.06;5009513;28;20486;-94
2023/01/28 09:02:44;;;;;;;1.70;1.60;;;;;;;-0.44;100.00;100340.78;4991905;28;20029;-94
2023/01/28 09:05:10;;;;;;;1.73;1.63;;;;;;;-0.51;100.00;100325.09;5008225;28;20094;-94
2023/01/28 09:07:37;;;;;;;2.25;1.25;;;;;;;-0.45;100.00;100336.50;4997179;28;20461;-95
2023/01/28 09:10:03;;;;;;;0.75;0.75;;;;;;;-0.37;100.00;100346.44;5007860;28;20045;-93
2023/01/28 09:12:29;;;;;;;0.10;0.10;;;;;;;-0.50;100.00;100331.34;4993264;28;20122;-93
2023/01/28 09:14:55;;;;;;;0.65;0.65;;;;;;;-0.55;100.00;100351.47;5003645;28;20054;-93
2023/01/28 09:17:20;;;;;;;2.47;2.28;;;;;;;-0.47;100.00;100336.06;4992849;28;20026;-94
2023/01/28 09:19:46;;;;;;;1.10;1.10;;;;;;;-0.38;100.00;100353.00;5013780;28;20060;-92
2023/01/28 09:22:11;;;;;;;3.03;2.83;;;;;;;-0.41;100.00;100342.84;5027229;28;20037;-94
2023/01/28 09:24:39;;;;;;;0.73;0.73;;;;;;;-0.44;100.00;100343.53;5027955;28;20040;-94
2023/01/28 09:27:05;;;;;;;1.85;1.67;;;;;;;-0.49;100.00;100338.38;4993068;28;20026;-93
2023/01/28 09:29:33;;;;;;;3.40;2.08;;;;;;;-0.34;100.00;100353.88;5010621;28;20065;-94
2023/01/28 09:31:58;;;;;;;0.55;0.55;;;;;;;-0.32;100.00;100357.03;4985340;28;20413;-95
2023/01/28 09:34:24;;;;;;;0.98;0.98;;;;;;;-0.43;100.00;100342.38;5000693;28;20033;-94
2023/01/28 09:36:50;;;;;;;1.65;1.25;;;;;;;-0.38;100.00;100347.56;4986723;28;20046;-94
2023/01/28 09:39:15;;;;;;;3.53;1.25;;;;;;;-0.33;100.00;100352.75;4987136;28;20034;-94
2023/01/28 09:41:48;;;;;;;1.88;1.50;;;;;;;-0.24;100.00;100366.19;4989475;28;20095;-94
2023/01/28 09:44:13;;;;;;;1.33;1.23;;;;;;;-0.25;100.00;100365.38;5000857;28;20030;-94
2023/01/28 09:46:41;;;;;;;3.85;3.08;;;;;;;-0.31;100.00;100350.44;5018594;28;21098;-94
2023/01/28 09:49:26;;;;;;;2.53;1.85;;;;;;;-0.28;100.00;100338.81;5020015;28;20040;-93
2023/01/28 09:51:53;;;;;;;2.45;2.30;;;;;;;-0.19;100.00;100361.22;5002983;28;20519;-95
2023/01/28 09:54:22;;;;;;;2.47;2.38;;;;;;;-0.18;100.00;100370.97;4982228;28;20029;-94
2023/01/28 09:56:51;;;;;;;1.00;1.00;;;;;;;-0.27;100.00;100348.56;5019151;28;20050;-92
2023/01/28 09:59:19;;;;;;;2.67;2.42;;;;;;;-0.27;100.00;100355.97;5007394;28;20068;-92
2023/01/28 10:02:00;;;;;;;0.57;0.57;;;;;;;-0.40;100.00;100341.66;5010038;28;20039;-94
2023/01/28 10:04:47;;;;;;;1.08;1.08;;;;;;;-0.17;100.00;100367.13;4990466;28;20049;-93
2023/01/28 10:07:31;;;;;;;1.75;1.58;;;;;;;-0.17;100.00;100369.03;4995586;28;20088;-92
2023/01/28 10:10:09;;;;;;;1.15;1.13;;;;;;;-0.10;100.00;100363.75;4992131;28;20548;-92
2023/01/28 10:12:41;;;;;;;0.82;0.82;;;;;;;-0.09;100.00;100363.41;5001133;28;20037;-92
2023/01/28 10:15:27;;;;;;;6.53;3.17;;;;;;;-0.16;100.00;100357.75;4993876;28;20034;-92
2023/01/28 10:18:08;;;;;;;0.10;0.10;;;;;;;-0.24;100.00;100347.09;4991857;28;20030;-92
2023/01/28 10:20:37;;;;;;;1.27;1.23;;;;;;;-0.14;100.00;100360.94;5003487;28;20036;-92
2023/01/28 10:23:23;;;;;;;2.03;1.92;;;;;;;-0.11;100.00;100362.94;5005023;28;20030;-92
2023/01/28 10:25:49;;;;;;;1.92;1.83;;;;;;;-0.16;100.00;100370.63;5005601;28;20042;-92
2023/01/28 10:28:23;;;;;;;1.67;1.58;;;;;;;-0.34;100.00;100331.28;5006879;28;20036;-93
2023/01/28 10:30:49;;;;;;;0.25;0.25;;;;;;;-0.26;100.00;100358.34;4981975;28;20053;-92
2023/01/28 10:33:14;;;;;;;1.50;1.40;;;;;;;-0.13;100.00;100367.19;5005337;28;20025;-94
2023/01/28 10:35:47;;;;;;;1.05;0.98;;;;;;;-0.16;100.00;100340.66;5026221;28;20061;-94
2023/01/28 10:38:15;;;;;;;3.35;3.08;;;;;;;-0.22;100.00;100342.84;5008326;28;20116;-93
2023/01/28 10:40:41;;;;;;;4.13;2.42;;;;;;;-0.08;100.00;100367.69;5019427;28;20018;-92
2023/01/28 10:43:07;;;;;;;2.75;1.20;;;;;;;-0.07;100.00;100363.81;4980722;28;20077;-93
2023/01/28 10:45:46;;;;;;;2.60;1.83;;;;;;;-0.21;100.00;100328.09;4994170;28;20102;-94
2023/01/28 10:48:23;;;;;;;0.65;0.65;;;;;;;-0.09;100.00;100344.31;5000310;28;20034;-95
2023/01/28 10:51:05;;;;;;;2.30;2.17;;;;;;;-0.13;100.00;100334.47;4992452;28;20581;-95
2023/01/28 10:53:41;;;;;;;0.75;0.75;;;;;;;-0.25;100.00;100321.75;4993906;28;20025;-95
2023/01/28 10:56:14;;;;;;;3.78;2.75;;;;;;;0.06;100.00;100369.13;5007088;28;20042;-95
2023/01/28 10:59:01;;;;;;;2.55;2.33;;;;;;;-0.04;100.00;100344.00;5025723;28;20038;-96
2023/01/28 11:01:46;;;;;;;0.47;0.47;;;;;;;0.10;100.00;100353.63;5010810;28;20048;-94
2023/01/28 11:04:30;;;;;;;0.70;0.70;;;;;;;0.12;100.00;100365.78;4997122;28;20055;-95
2023/01/28 11:07:00;;;;;;;;;;;;;;;0.11;100.00;100344.31;5019266;28;20029;-95
2023/01/28 11:09:31;;;;;;;1.52;1.48;;;;;;;0.04;100.00;100334.06;4996735;28;19924;-95
2023/01/28 11:12:08;;;;;;;2.53;2.38;;;;;;;-0.23;100.00;100314.00;4994568;28;20065;-95
2023/01/28 11:14:34;;;;;;;1.33;1.23;;;;;;;-0.05;100.00;100339.72;5010014;28;20494;-96
2023/01/28 11:17:02;;;;;;;0.40;0.40;;;;;;;0.08;100.00;100345.03;5012689;28;20144;-95
2023/01/28 11:19:33;;;;;;;3.40;2.35;;;;;;;-0.15;100.00;100323.91;4998692;28;20037;-94
2023/01/28 11:22:00;;;;;;;1.40;1.20;;;;;;;-0.07;100.00;100333.81;5011180;28;20037;-94
2023/01/28 11:24:29;;;;;;;2.25;2.13;;;;;;;0.02;100.00;100346.44;4990273;28;20033;-95
2023/01/28 11:26:57;;;;;;;2.03;1.83;;;;;;;-0.27;100.00;100306.91;5010659;28;20087;-95
2023/01/28 11:29:30;;;;;;;0.90;0.90;;;;;;;-0.01;100.00;100347.97;4997856;28;20030;-96
2023/01/28 11:31:56;;;;;;;1.58;1.38;;;;;;;-0.16;100.00;100318.84;4995492;28;20049;-94
2023/01/28 11:34:29;;;;;;;1.23;1.15;;;;;;;-0.08;100.00;100326.78;4999588;28;20124;-93
2023/01/28 11:37:12;;;;;;;2.20;2.00;;;;;;;-0.02;100.00;100313.66;5005912;28;20030;-94
2023/01/28 11:39:38;;;;;;;3.60;3.33;;;;;;;-0.05;100.00;100320.63;5008547;28;20033;-93
2023/01/28 11:42:20;;;;;;;0.43;0.43;;;;;;;0.10;100.00;100335.31;4985393;28;20497;-94
2023/01/28 11:44:47;;;;;;;1.23;1.13;;;;;;;-0.06;100.00;100318.25;4988203;28;20052;-94
2023/01/28 11:47:32;;;;;;;1.30;1.25;;;;;;;-0.04;100.00;100327.63;5023413;28;20529;-93
2023/01/28 11:50:01;;;;;;;3.20;1.23;;;;;;;0.06;100.00;100342.66;5004614;28;20033;-93
2023/01/28 11:52:47;;;;;;;7.05;4.00;;;;;;;0.09;100.00;100339.19;5051083;28;20025;-94
2023/01/28 11:55:31;;;;;;;0.70;0.70;;;;;;;0.14;100.00;100344.38;5044092;28;20151;-94
2023/01/28 12:15:45;;;;;;;1.05;1.05;;;;;;;0.55;100.00;100340.09;1396665;26;20045;-92
2023/01/28 12:18:39;;;;;;;0.57;0.55;;;;;;;0.55;100.00;100328.38;5010044;28;20118;-93
2023/01/28 12:21:24;;;;;;;1.10;1.10;;;;;;;0.60;100.00;100345.25;5025088;28;20049;-92
2023/01/28 12:24:14;;;;;;;0.68;0.68;;;;;;;0.36;100.00;100297.25;5009738;28;20116;-93
2023/01/28 12:26:55;;;;;;;0.85;0.82;;;;;;;0.59;100.00;100343.69;5022408;28;20038;-93
2023/01/28 12:29:51;;;;;;;2.25;2.15;;;;;;;0.62;100.00;100337.47;5023675;28;20034;-94
2023/01/28 12:32:38;;;;;;;2.05;1.90;;;;;;;0.61;100.00;100335.91;5021830;28;20050;-93
2023/01/28 12:35:19;;;;;;;2.17;1.85;;;;;;;0.34;100.00;100298.75;5023349;28;20466;-91
2023/01/28 12:38:04;;;;;;;2.00;1.85;;;;;;;0.37;100.00;100295.28;5004994;28;20135;-93
2023/01/28 12:41:08;;;;;;;3.90;1.50;;;;;;;0.64;100.00;100340.66;5021616;28;20499;-92
2023/01/28 12:43:46;;;;;;;2.38;2.17;;;;;;;0.31;100.00;100307.69;5017201;28;20053;-93
2023/01/28 12:46:51;;;;;;;3.35;3.05;;;;;;;0.59;100.00;100346.41;4996869;28;20050;-92
2023/01/28 12:49:23;;;;;;;2.05;1.95;;;;;;;0.57;100.00;100340.50;5057474;28;20036;-96
2023/01/28 12:52:13;;;;;;;1.50;1.40;;;;;;;0.47;100.00;100352.03;5041484;28;20040;-96
2023/01/28 12:55:02;;;;;;;0.90;0.88;;;;;;;0.50;100.00;100345.84;5019153;28;20038;-96
2023/01/28 12:57:38;;;;;;;1.83;1.73;;;;;;;0.29;100.00;100307.22;5017366;28;20034;-96
2023/01/28 13:00:33;;;;;;;2.85;2.65;;;;;;;0.58;100.00;100346.75;5034306;28;20029;-96
2023/01/28 13:03:07;;;;;;;;;;;;;;;0.54;100.00;100354.88;5006363;28;20038;-96
2023/01/28 13:05:41;;;;;;;0.63;0.63;;;;;;;0.49;100.00;100360.63;5022913;28;19992;-96
2023/01/28 13:08:18;;;;;;;1.65;1.55;;;;;;;0.19;100.00;100316.00;4978576;28;20044;-92
2023/01/28 13:10:46;;;;;;;4.95;4.38;;;;;;;0.48;100.00;100364.53;5014924;28;20053;-96
2023/01/28 13:13:24;;;;;;;1.98;1.88;;;;;;;0.21;100.00;100327.34;4973862;28;20040;-96
2023/01/28 13:16:00;;;;;;;2.53;2.20;;;;;;;0.29;100.00;100339.97;4994333;28;20042;-96
2023/01/28 13:18:38;;;;;;;1.90;1.80;;;;;;;0.47;100.00;100360.22;4994861;28;20049;-96
2023/01/28 13:21:16;;;;;;;1.92;1.85;;;;;;;0.36;100.00;100345.59;5013755;28;20030;-96
2023/01/28 13:23:47;;;;;;;3.40;2.80;;;;;;;0.15;100.00;100323.34;4991918;28;20034;-96
2023/01/28 13:26:22;;;;;;;3.63;1.75;;;;;;;0.31;100.00;100370.44;4985596;28;20041;-96
2023/01/28 13:28:50;;;;;;;2.17;2.05;;;;;;;0.05;100.00;100324.69;5005474;28;20037;-96
2023/01/28 13:31:19;;;;;;;5.68;2.25;;;;;;;-0.02;100.00;100330.81;4990917;28;20022;-96
2023/01/28 13:34:00;;;;;;;2.42;1.98;;;;;;;-0.07;100.00;100325.63;5001517;28;20068;-96
2023/01/28 13:36:32;;;;;;;2.30;2.05;;;;;;;-0.08;100.00;100329.50;5018034;28;20022;-96
2023/01/28 13:39:02;;;;;;;2.58;2.40;;;;;;;-0.17;100.00;100318.03;5017737;28;20026;-96
2023/01/28 13:41:54;;;;;;;0.33;0.33;;;;;;;0.15;100.00;100375.97;5018096;28;20064;-95
2023/01/28 13:44:34;;;;;;;1.15;1.15;;;;;;;-0.06;100.00;100337.34;4996798;28;20296;-96
2023/01/28 13:47:06;;;;;;;4.70;2.35;;;;;;;0.14;100.00;100387.22;4988374;28;20052;-93
2023/01/28 13:49:33;;;;;;;5.25;4.15;;;;;;;-0.07;100.00;100344.72;5033899;28;20041;-96
2023/01/28 13:52:10;;;;;;;1.13;1.13;;;;;;;-0.11;100.00;100360.22;5005970;28;20022;-95
2023/01/28 13:54:42;;;;;;;0.85;0.85;;;;;;;-0.08;100.00;100343.13;4999932;28;20046;-96
2023/01/28 13:57:13;;;;;;;1.05;1.05;;;;;;;0.22;100.00;100402.59;5023118;28;20049;-96
2023/01/28 13:59:55;;;;;;;2.63;2.25;;;;;;;0.22;100.00;100402.59;5023852;28;20443;-96
2023/01/28 14:02:46;;;;;;;3.45;2.67;;;;;;;0.04;100.00;100374.16;5007947;28;20048;-96
2023/01/28 14:05:15;;;;;;;1.02;1.02;;;;;;;0.18;100.00;100396.28;5003582;28;20038;-96
2023/01/28 14:07:56;;;;;;;2.45;2.22;;;;;;;-0.05;100.00;100369.72;4998553;28;20121;-95
2023/01/28 14:10:43;;;;;;;1.88;1.77;;;;;;;0.15;100.00;100402.44;5019249;28;20038;-94
2023/01/28 14:13:24;;;;;;;1.55;1.45;;;;;;;-0.07;100.00;100377.44;5000610;28;20045;-94
2023/01/28 14:16:16;;;;;;;2.33;2.13;;;;;;;0.07;100.00;100408.91;5007350;28;20082;-94
2023/01/28 14:18:43;;;;;;;0.82;0.82;;;;;;;0.14;100.00;100414.50;4987803;28;20129;-93
2023/01/28 14:21:12;;;;;;;1.05;1.05;;;;;;;-0.09;100.00;100390.66;4974905;28;20129;-93
2023/01/28 14:23:44;;;;;;;2.55;2.35;;;;;;;-0.01;100.00;100391.59;4992636;28;20030;-95
2023/01/28 14:26:13;;;;;;;3.60;3.28;;;;;;;0.06;100.00;100412.78;4980315;28;20058;-93
2023/01/28 14:28:55;;;;;;;3.38;2.15;;;;;;;0.11;100.00;100424.19;5010028;28;20101;-93
2023/01/28 14:31:26;;;;;;;3.40;1.75;;;;;;;-0.12;100.00;100396.03;5007507;28;20124;-94
2023/01/28 14:33:53;;;;;;;5.55;5.05;;;;;;;-0.12;100.00;100385.91;4993202;28;20042;-94
2023/01/28 14:36:19;;;;;;;11.65;3.83;;;;;;;-0.04;100.00;100404.00;5010547;28;20029;-93
2023/01/28 14:38:45;;;;;;;3.20;2.53;;;;;;;-0.01;100.00;100403.31;5003654;28;20275;-94